Time;durP1;ratioP1;P1;durP2;ratioP2;P2;SDS_P1;SDS_P2;PMS_P1;PMS_P2;Temp;Humidity;BMP_temperature;BMP_pressure;BME280_temperature;BME280_humidity;BME280_pressure;Samples;Min_cycle;Max_cycle;Signal;HPM_P1;HPM_P2
2022/10/07 00:00:22;;;;;;;0.20;0.20;;;9.80;99.90;;;;;;5024068;28;20193;-81
2022/10/07 00:02:48;;;;;;;0.20;0.20;;;9.70;99.90;;;;;;5021150;28;20357;-80
2022/10/07 00:05:13;;;;;;;0.20;0.20;;;9.70;99.90;;;;;;5025546;28;20266;-82
2022/10/07 00:07:39;;;;;;;0.20;0.20;;;9.70;99.90;;;;;;5013184;28;20305;-83
2022/10/07 00:10:05;;;;;;;0.20;0.20;;;9.70;99.90;;;;;;5027141;28;20184;-82
2022/10/07 00:12:30;;;;;;;0.20;0.20;;;9.60;99.90;;;;;;5021931;28;20214;-81
2022/10/07 00:14:56;;;;;;;0.20;0.20;;;9.70;99.90;;;;;;5018664;28;20442;-80
2022/10/07 00:17:22;;;;;;;0.20;0.20;;;9.70;99.90;;;;;;5011231;28;20196;-81
2022/10/07 00:19:47;;;;;;;0.20;0.20;;;9.60;99.90;;;;;;5012505;28;20180;-80
2022/10/07 00:22:13;;;;;;;0.20;0.20;;;9.70;99.90;;;;;;5017310;28;20772;-82
2022/10/07 00:24:38;;;;;;;0.20;0.20;;;9.50;99.90;;;;;;5017636;28;20190;-82
2022/10/07 00:27:04;;;;;;;0.30;0.30;;;9.60;99.90;;;;;;5020129;28;20569;-82
2022/10/07 00:29:30;;;;;;;0.20;0.20;;;9.50;99.90;;;;;;5023500;28;20271;-81
2022/10/07 00:31:55;;;;;;;0.20;0.20;;;9.60;99.90;;;;;;5019871;28;20705;-82
2022/10/07 00:34:21;;;;;;;0.20;0.20;;;9.60;99.90;;;;;;5028091;28;20305;-82
2022/10/07 00:36:49;;;;;;;0.30;0.30;;;9.60;99.90;;;;;;5022728;28;20192;-81
2022/10/07 00:39:15;;;;;;;0.20;0.20;;;9.60;99.90;;;;;;5033098;28;20179;-83
2022/10/07 00:41:49;;;;;;;0.20;0.20;;;9.60;99.90;;;;;;5026485;28;20473;-80
2022/10/07 00:44:30;;;;;;;0.20;0.20;;;9.50;99.90;;;;;;5035189;28;20461;-83
2022/10/07 00:47:23;;;;;;;0.30;0.30;;;9.50;99.90;;;;;;5023637;28;20520;-82
2022/10/07 00:50:01;;;;;;;0.20;0.20;;;9.50;99.90;;;;;;5028507;28;20533;-80
2022/10/07 00:52:30;;;;;;;0.30;0.30;;;9.50;99.90;;;;;;5021293;28;20454;-80
2022/10/07 00:54:58;;;;;;;0.20;0.20;;;9.40;99.90;;;;;;5040717;28;20455;-83
2022/10/07 00:57:26;;;;;;;0.20;0.20;;;9.40;99.90;;;;;;5024774;28;20437;-80
2022/10/07 00:59:54;;;;;;;0.20;0.20;;;9.30;99.90;;;;;;5022784;28;20452;-81
2022/10/07 01:02:22;;;;;;;0.20;0.20;;;9.40;99.90;;;;;;5024362;28;20485;-82
2022/10/07 01:04:48;;;;;;;0.20;0.20;;;9.40;99.90;;;;;;5027134;28;20470;-82
2022/10/07 01:07:17;;;;;;;0.20;0.20;;;9.40;99.90;;;;;;5022484;28;20469;-83
2022/10/07 01:09:42;;;;;;;0.20;0.20;;;9.40;99.90;;;;;;5023693;28;20529;-83
2022/10/07 01:12:16;;;;;;;0.30;0.30;;;9.30;99.90;;;;;;5013620;28;20545;-80
2022/10/07 01:15:00;;;;;;;0.20;0.20;;;9.30;99.90;;;;;;5014278;28;20223;-83
2022/10/07 01:17:34;;;;;;;0.20;0.20;;;9.30;99.90;;;;;;5027878;28;20434;-83
2022/10/07 01:20:12;;;;;;;0.20;0.20;;;9.30;99.90;;;;;;5019919;28;20535;-83
2022/10/07 01:22:43;;;;;;;0.20;0.20;;;9.30;99.90;;;;;;5025887;28;20477;-82
2022/10/07 01:25:33;;;;;;;0.20;0.20;;;9.30;99.90;;;;;;5025003;28;20481;-83
2022/10/07 01:28:14;;;;;;;0.30;0.30;;;9.30;99.90;;;;;;5011821;28;20446;-82
2022/10/07 01:30:45;;;;;;;0.20;0.20;;;9.30;99.90;;;;;;5018366;28;20481;-82
2022/10/07 01:33:17;;;;;;;0.30;0.30;;;9.30;99.90;;;;;;5017473;28;20465;-82
2022/10/07 01:35:45;;;;;;;0.20;0.20;;;9.30;99.90;;;;;;5020394;28;20474;-82
2022/10/07 01:38:15;;;;;;;0.20;0.20;;;9.30;99.90;;;;;;5019955;28;20447;-82
2022/10/07 01:40:58;;;;;;;0.30;0.30;;;9.30;99.90;;;;;;5019394;28;20480;-82
2022/10/07 01:43:24;;;;;;;0.20;0.20;;;9.30;99.90;;;;;;5021108;28;20501;-83
2022/10/07 01:45:52;;;;;;;0.20;0.20;;;9.20;99.90;;;;;;5023858;28;20520;-83
2022/10/07 01:48:17;;;;;;;0.20;0.20;;;9.20;99.90;;;;;;5030294;28;20418;-83
2022/10/07 01:50:43;;;;;;;0.30;0.30;;;9.20;99.90;;;;;;5017030;28;20505;-81
2022/10/07 01:53:35;;;;;;;0.30;0.30;;;9.20;99.90;;;;;;5009794;28;20283;-82
2022/10/07 01:56:32;;;;;;;0.20;0.20;;;9.20;99.90;;;;;;5016049;28;20188;-83
2022/10/07 01:59:35;;;;;;;0.20;0.20;;;9.30;99.90;;;;;;5019612;28;20504;-83
2022/10/07 02:02:24;;;;;;;0.30;0.30;;;9.20;99.90;;;;;;5025165;28;20472;-82
2022/10/07 02:05:16;;;;;;;0.30;0.30;;;9.20;99.90;;;;;;5034485;28;20484;-82
2022/10/07 02:08:14;;;;;;;0.20;0.20;;;9.20;99.90;;;;;;5024486;28;20507;-81
2022/10/07 02:11:02;;;;;;;0.30;0.30;;;9.20;99.90;;;;;;5021191;28;20453;-85
2022/10/07 02:13:44;;;;;;;0.20;0.20;;;9.30;99.90;;;;;;5012641;28;20518;-82
2022/10/07 02:16:21;;;;;;;0.20;0.20;;;9.20;99.90;;;;;;5032639;28;20820;-81
2022/10/07 02:18:50;;;;;;;0.20;0.20;;;9.20;99.90;;;;;;5023801;28;20442;-82
2022/10/07 02:21:25;;;;;;;0.20;0.20;;;9.20;99.90;;;;;;5016569;28;20442;-79
2022/10/07 02:23:53;;;;;;;0.30;0.30;;;9.10;99.90;;;;;;5017369;28;20459;-80
2022/10/07 02:26:23;;;;;;;0.20;0.20;;;9.10;99.90;;;;;;5022339;28;20434;-80
2022/10/07 02:28:51;;;;;;;0.20;0.20;;;9.10;99.90;;;;;;5021963;28;20446;-83
2022/10/07 02:31:19;;;;;;;0.20;0.20;;;9.10;99.90;;;;;;5025353;28;21008;-83
2022/10/07 02:33:46;;;;;;;0.20;0.20;;;9.10;99.90;;;;;;5017816;28;20588;-82
2022/10/07 02:36:15;;;;;;;0.20;0.20;;;9.10;99.90;;;;;;5025129;28;20477;-83
2022/10/07 02:38:42;;;;;;;0.20;0.20;;;9.10;99.90;;;;;;5024026;28;21390;-80
2022/10/07 02:41:30;;;;;;;0.20;0.20;;;9.10;99.90;;;;;;5023994;28;20988;-83
2022/10/07 02:44:17;;;;;;;0.30;0.30;;;9.10;99.90;;;;;;5029083;28;20446;-83
2022/10/07 02:46:52;;;;;;;0.30;0.30;;;9.10;99.90;;;;;;5022184;28;20446;-80
2022/10/07 02:49:22;;;;;;;0.20;0.20;;;9.10;99.90;;;;;;5019571;28;20511;-83
2022/10/07 02:51:56;;;;;;;0.30;0.30;;;9.00;99.90;;;;;;5025494;28;20501;-83
2022/10/07 02:54:27;;;;;;;0.20;0.20;;;9.00;99.90;;;;;;5028469;28;20453;-82
2022/10/07 02:56:55;;;;;;;0.20;0.20;;;9.00;99.90;;;;;;5014762;28;20446;-83
2022/10/07 02:59:22;;;;;;;0.30;0.30;;;9.00;99.90;;;;;;5026795;28;20453;-84
2022/10/07 03:01:52;;;;;;;0.20;0.20;;;9.00;99.90;;;;;;5022790;28;20485;-83
2022/10/07 03:04:18;;;;;;;0.27;0.27;;;8.90;99.90;;;;;;5021393;28;20484;-81
2022/10/07 03:06:43;;;;;;;0.30;0.30;;;8.90;99.90;;;;;;5020223;28;20885;-83
2022/10/07 03:09:10;;;;;;;0.20;0.20;;;8.90;99.90;;;;;;5025368;28;20744;-83
2022/10/07 03:11:37;;;;;;;0.30;0.30;;;8.80;99.90;;;;;;5027950;28;20233;-83
2022/10/07 03:14:04;;;;;;;0.20;0.20;;;8.90;99.90;;;;;;5023440;28;20534;-83
2022/10/07 03:16:30;;;;;;;0.23;0.23;;;8.90;99.90;;;;;;5022758;28;20529;-84
2022/10/07 03:18:56;;;;;;;0.20;0.20;;;8.90;99.90;;;;;;5016792;28;20518;-84
2022/10/07 03:21:21;;;;;;;0.20;0.20;;;8.90;99.90;;;;;;5027810;28;20446;-83
2022/10/07 03:23:51;;;;;;;0.20;0.20;;;8.90;99.90;;;;;;5028658;28;21045;-82
2022/10/07 03:26:18;;;;;;;0.30;0.30;;;8.80;99.90;;;;;;5017672;28;20191;-82
2022/10/07 03:28:44;;;;;;;0.30;0.30;;;8.80;99.90;;;;;;5027176;28;20447;-82
2022/10/07 03:31:11;;;;;;;0.30;0.30;;;8.90;99.90;;;;;;5017700;28;20467;-83
2022/10/07 03:33:37;;;;;;;0.20;0.20;;;8.90;99.90;;;;;;5029699;28;20453;-83
2022/10/07 03:36:04;;;;;;;0.20;0.20;;;8.90;99.90;;;;;;5019308;28;20467;-82
2022/10/07 03:38:30;;;;;;;0.30;0.30;;;8.80;99.90;;;;;;5012803;28;20447;-82
2022/10/07 03:40:56;;;;;;;0.30;0.30;;;8.80;99.90;;;;;;5027534;28;20503;-83
2022/10/07 03:43:22;;;;;;;0.20;0.20;;;8.90;99.90;;;;;;5011934;28;20562;-83
2022/10/07 03:45:51;;;;;;;0.30;0.30;;;8.80;99.90;;;;;;5020525;28;20204;-82
2022/10/07 03:48:17;;;;;;;0.20;0.20;;;8.80;99.90;;;;;;5018054;28;20533;-84
2022/10/07 03:50:50;;;;;;;0.20;0.20;;;8.80;99.90;;;;;;5020969;28;20551;-82
2022/10/07 03:53:15;;;;;;;0.27;0.27;;;8.80;99.90;;;;;;5015953;28;21026;-84
2022/10/07 03:55:41;;;;;;;0.30;0.30;;;8.80;99.90;;;;;;5019109;28;20525;-83
2022/10/07 03:58:06;;;;;;;0.30;0.30;;;8.80;99.90;;;;;;5020481;28;20726;-83
2022/10/07 04:00:32;;;;;;;0.20;0.20;;;8.70;99.90;;;;;;5015914;28;20180;-82
2022/10/07 04:02:57;;;;;;;0.20;0.20;;;8.70;99.90;;;;;;5026801;28;20270;-83
2022/10/07 04:05:23;;;;;;;0.30;0.30;;;8.70;99.90;;;;;;5017149;28;20188;-84
2022/10/07 04:07:49;;;;;;;0.20;0.20;;;8.70;99.90;;;;;;5029922;28;20558;-84
2022/10/07 04:10:16;;;;;;;0.20;0.20;;;8.80;99.90;;;;;;5016932;28;20188;-82
2022/10/07 04:12:43;;;;;;;0.30;0.30;;;8.80;99.90;;;;;;5009791;28;20847;-82
2022/10/07 04:15:12;;;;;;;0.30;0.30;;;8.80;99.90;;;;;;5026293;28;20434;-83
2022/10/07 04:17:38;;;;;;;0.20;0.20;;;8.80;99.90;;;;;;5016231;28;21002;-83
2022/10/07 04:20:04;;;;;;;0.30;0.30;;;8.70;99.90;;;;;;5019458;28;20458;-83
2022/10/07 04:22:30;;;;;;;0.30;0.30;;;8.80;99.90;;;;;;5014541;28;20479;-82
2022/10/07 04:27:40;;;;;;;0.20;0.20;;;8.80;99.90;;;;;;5010321;28;20458;-84
2022/10/07 04:30:06;;;;;;;0.20;0.20;;;8.70;99.90;;;;;;5015602;28;20447;-82
2022/10/07 04:32:31;;;;;;;0.30;0.30;;;8.80;99.90;;;;;;5021278;28;20207;-82
2022/10/07 04:34:57;;;;;;;0.20;0.20;;;8.70;99.90;;;;;;5019864;28;20794;-81
2022/10/07 04:37:22;;;;;;;0.20;0.20;;;8.70;99.90;;;;;;5022985;28;20195;-81
2022/10/07 04:39:48;;;;;;;0.20;0.20;;;8.70;99.90;;;;;;5021091;28;20179;-82
2022/10/07 04:44:58;;;;;;;0.30;0.30;;;8.70;99.90;;;;;;5010338;28;20613;-83
2022/10/07 04:47:24;;;;;;;0.30;0.30;;;8.70;99.90;;;;;;5028749;28;20442;-82
2022/10/07 04:49:52;;;;;;;0.30;0.30;;;8.60;99.90;;;;;;5021800;28;20495;-80
2022/10/07 04:52:18;;;;;;;0.30;0.30;;;8.60;99.90;;;;;;5024342;28;20184;-83
2022/10/07 04:54:43;;;;;;;0.20;0.20;;;8.60;99.90;;;;;;5020938;28;20446;-83
2022/10/07 04:57:12;;;;;;;0.30;0.30;;;8.60;99.90;;;;;;5016187;28;20279;-82
2022/10/07 04:59:38;;;;;;;0.20;0.20;;;8.50;99.90;;;;;;5016245;28;20187;-82
2022/10/07 05:02:03;;;;;;;0.30;0.30;;;8.50;99.90;;;;;;5015365;28;20474;-83
2022/10/07 05:04:29;;;;;;;0.30;0.30;;;8.50;99.90;;;;;;5016470;28;20948;-82
2022/10/07 05:06:54;;;;;;;0.30;0.30;;;8.50;99.90;;;;;;5019252;28;20555;-82
2022/10/07 05:09:20;;;;;;;0.30;0.30;;;8.50;99.90;;;;;;5013669;28;20192;-82
2022/10/07 05:11:47;;;;;;;0.20;0.20;;;8.40;99.90;;;;;;5032353;28;20270;-82
2022/10/07 05:14:12;;;;;;;0.20;0.20;;;8.40;99.90;;;;;;5031981;28;20196;-82
2022/10/07 05:16:38;;;;;;;0.20;0.20;;;8.40;99.90;;;;;;5016153;28;20450;-82
2022/10/07 05:19:04;;;;;;;0.30;0.30;;;8.40;99.90;;;;;;5025843;28;20248;-82
2022/10/07 05:21:29;;;;;;;0.30;0.30;;;8.40;99.90;;;;;;5012656;28;20446;-83
2022/10/07 05:23:55;;;;;;;0.30;0.30;;;8.40;99.90;;;;;;5015986;28;20202;-83
2022/10/07 05:26:20;;;;;;;0.20;0.20;;;8.40;99.90;;;;;;5021844;28;20209;-83
2022/10/07 05:28:48;;;;;;;0.30;0.30;;;8.40;99.90;;;;;;5020103;28;20272;-82
2022/10/07 05:31:14;;;;;;;0.30;0.30;;;8.40;99.90;;;;;;5018348;28;20663;-81
2022/10/07 05:33:40;;;;;;;0.27;0.27;;;8.40;99.90;;;;;;5009946;28;20454;-81
2022/10/07 05:36:08;;;;;;;0.30;0.30;;;8.40;99.90;;;;;;5026838;28;20572;-83
2022/10/07 05:38:34;;;;;;;0.30;0.30;;;8.40;99.90;;;;;;5027522;28;20827;-82
2022/10/07 05:41:02;;;;;;;0.30;0.30;;;8.50;99.90;;;;;;5032960;28;20450;-84
2022/10/07 05:43:33;;;;;;;0.20;0.20;;;8.50;99.90;;;;;;5019978;28;20513;-83
2022/10/07 05:46:00;;;;;;;0.20;0.20;;;8.50;99.90;;;;;;5028793;28;20875;-81
2022/10/07 05:48:28;;;;;;;0.30;0.30;;;8.50;99.90;;;;;;5020880;28;21221;-82
2022/10/07 05:50:54;;;;;;;0.30;0.30;;;8.50;99.90;;;;;;5027462;28;20438;-83
2022/10/07 05:53:20;;;;;;;0.20;0.20;;;8.50;99.90;;;;;;5024673;28;20439;-82
2022/10/07 05:55:45;;;;;;;0.30;0.30;;;8.50;99.90;;;;;;5017894;28;20481;-82
2022/10/07 05:58:12;;;;;;;0.30;0.30;;;8.60;99.90;;;;;;5013277;28;20192;-83
2022/10/07 06:00:41;;;;;;;0.30;0.30;;;8.60;99.90;;;;;;5027939;28;20202;-83
2022/10/07 06:03:07;;;;;;;0.30;0.30;;;8.60;99.90;;;;;;5020286;28;20483;-82
2022/10/07 06:05:32;;;;;;;0.30;0.30;;;8.60;99.90;;;;;;5024589;28;20442;-82
2022/10/07 06:07:58;;;;;;;0.30;0.30;;;8.60;99.90;;;;;;5023361;28;20450;-83
2022/10/07 06:13:09;;;;;;;0.30;0.30;;;8.70;99.90;;;;;;5025033;28;20194;-82
2022/10/07 06:15:36;;;;;;;0.30;0.30;;;8.70;99.90;;;;;;5024380;28;20426;-82
2022/10/07 06:18:03;;;;;;;0.30;0.30;;;8.70;99.90;;;;;;5024293;28;20446;-82
2022/10/07 06:20:28;;;;;;;0.30;0.30;;;8.70;99.90;;;;;;5012827;28;20449;-85
2022/10/07 06:22:54;;;;;;;0.30;0.30;;;8.70;99.90;;;;;;5023595;28;20481;-83
2022/10/07 06:25:20;;;;;;;0.20;0.20;;;8.80;99.90;;;;;;5020846;28;20207;-85
2022/10/07 06:27:45;;;;;;;0.23;0.23;;;8.80;99.90;;;;;;5017920;28;20472;-83
2022/10/07 06:30:12;;;;;;;0.30;0.30;;;8.80;99.90;;;;;;5024216;28;20446;-86
2022/10/07 06:32:37;;;;;;;0.30;0.30;;;8.90;99.90;;;;;;5016114;28;20193;-84
2022/10/07 06:35:03;;;;;;;0.30;0.30;;;8.90;99.90;;;;;;5026485;28;20494;-82
2022/10/07 06:37:30;;;;;;;0.20;0.20;;;8.90;99.90;;;;;;5018192;28;20594;-83
2022/10/07 06:39:56;;;;;;;0.30;0.30;;;8.90;99.90;;;;;;5020321;28;20532;-83
2022/10/07 06:42:22;;;;;;;0.30;0.30;;;8.90;99.90;;;;;;5019050;28;20963;-82
2022/10/07 06:44:47;;;;;;;0.30;0.30;;;9.00;99.90;;;;;;5015552;28;20442;-81
2022/10/07 06:47:13;;;;;;;0.20;0.20;;;9.00;99.90;;;;;;5027362;28;20663;-82
2022/10/07 06:49:38;;;;;;;0.30;0.30;;;9.10;99.90;;;;;;5024215;28;20194;-84
2022/10/07 06:52:04;;;;;;;0.20;0.20;;;9.10;99.90;;;;;;5025370;28;20594;-85
2022/10/07 06:54:30;;;;;;;0.20;0.20;;;9.20;99.90;;;;;;5019405;28;20180;-87
2022/10/07 06:56:55;;;;;;;0.20;0.20;;;9.30;99.90;;;;;;5021264;28;20199;-87
2022/10/07 06:59:21;;;;;;;0.30;0.30;;;9.40;99.90;;;;;;5026406;28;20184;-86
2022/10/07 07:01:46;;;;;;;0.20;0.20;;;9.50;99.90;;;;;;5019806;28;20214;-85
2022/10/07 07:04:11;;;;;;;0.30;0.30;;;9.60;99.90;;;;;;5025965;28;20191;-85
2022/10/07 07:06:37;;;;;;;0.30;0.30;;;9.70;99.90;;;;;;5024261;28;20663;-87
2022/10/07 07:09:04;;;;;;;0.20;0.20;;;9.80;99.90;;;;;;5027950;28;20207;-85
2022/10/07 07:11:36;;;;;;;0.30;0.30;;;9.80;99.90;;;;;;5019316;28;20203;-86
2022/10/07 07:14:03;;;;;;;0.20;0.20;;;9.90;99.90;;;;;;5021202;28;20454;-83
2022/10/07 07:16:30;;;;;;;0.20;0.20;;;10.10;99.90;;;;;;5019067;28;20961;-87
2022/10/07 07:18:58;;;;;;;0.20;0.20;;;10.00;99.90;;;;;;5028320;28;20449;-87
2022/10/07 07:21:33;;;;;;;0.20;0.20;;;10.20;99.90;;;;;;5033320;28;20426;-84
2022/10/07 07:23:59;;;;;;;0.20;0.20;;;10.20;99.90;;;;;;5027262;28;20449;-84
2022/10/07 07:26:27;;;;;;;0.20;0.20;;;10.30;99.90;;;;;;5018738;28;20538;-87
2022/10/07 07:29:01;;;;;;;0.20;0.20;;;10.30;99.90;;;;;;5025584;28;20187;-88
2022/10/07 07:31:29;;;;;;;0.20;0.20;;;10.40;99.90;;;;;;5029380;28;20461;-89
2022/10/07 07:33:56;;;;;;;0.20;0.20;;;10.60;99.90;;;;;;5025815;28;20457;-87
2022/10/07 07:36:23;;;;;;;0.20;0.20;;;10.60;99.90;;;;;;5027634;28;20475;-87
2022/10/07 07:38:52;;;;;;;0.20;0.20;;;10.70;99.90;;;;;;5020556;28;20477;-85
2022/10/07 07:41:20;;;;;;;0.20;0.20;;;10.80;99.90;;;;;;5031128;28;20937;-87
2022/10/07 07:43:50;;;;;;;0.20;0.20;;;10.80;99.90;;;;;;5043676;28;20580;-86
2022/10/07 07:46:17;;;;;;;0.20;0.20;;;10.90;99.90;;;;;;5025116;28;20443;-85
2022/10/07 07:48:43;;;;;;;0.20;0.20;;;10.90;99.90;;;;;;5019169;28;20453;-91
2022/10/07 07:51:09;;;;;;;0.20;0.20;;;11.00;99.90;;;;;;5028452;28;20438;-87
2022/10/07 07:53:36;;;;;;;0.20;0.20;;;11.10;99.90;;;;;;5026113;28;20655;-87
2022/10/07 07:56:02;;;;;;;0.20;0.20;;;11.30;99.90;;;;;;5020571;28;20680;-86
2022/10/07 07:58:28;;;;;;;0.20;0.20;;;11.40;99.90;;;;;;5024854;28;20525;-85
2022/10/07 08:01:05;;;;;;;0.20;0.20;;;11.50;99.90;;;;;;5021006;28;20188;-86
2022/10/07 08:03:32;;;;;;;0.20;0.20;;;11.60;99.90;;;;;;5018146;28;20564;-87
2022/10/07 08:06:05;;;;;;;0.20;0.20;;;11.70;99.90;;;;;;5023367;28;20794;-88
2022/10/07 08:08:31;;;;;;;0.20;0.20;;;11.90;99.90;;;;;;5026230;28;20520;-83
2022/10/07 08:11:05;;;;;;;0.10;0.10;;;12.00;99.90;;;;;;5017379;28;20446;-89
2022/10/07 08:13:31;;;;;;;0.20;0.20;;;12.10;99.90;;;;;;5026574;28;20439;-89
2022/10/07 08:15:57;;;;;;;0.20;0.20;;;12.00;99.90;;;;;;5022989;28;20462;-86
2022/10/07 08:18:23;;;;;;;0.20;0.20;;;12.20;99.90;;;;;;5027274;28;20442;-82
2022/10/07 08:20:59;;;;;;;0.20;0.20;;;12.30;99.90;;;;;;5014135;28;20192;-83
2022/10/07 08:23:25;;;;;;;0.20;0.20;;;12.40;99.90;;;;;;5007698;28;20367;-79
2022/10/07 08:25:55;;;;;;;0.20;0.20;;;12.50;99.90;;;;;;5006024;28;21491;-80
2022/10/07 08:28:22;;;;;;;0.10;0.10;;;12.60;99.90;;;;;;5013506;28;20446;-82
2022/10/07 08:30:49;;;;;;;0.10;0.10;;;12.90;99.90;;;;;;5023292;28;20528;-83
2022/10/07 08:33:16;;;;;;;0.10;0.10;;;12.90;99.90;;;;;;5023729;28;20508;-83
2022/10/07 08:35:42;;;;;;;0.10;0.10;;;13.20;99.90;;;;;;5018124;28;20474;-82
2022/10/07 08:38:07;;;;;;;0.10;0.10;;;13.00;99.90;;;;;;5019612;28;20995;-81
2022/10/07 08:40:34;;;;;;;0.10;0.10;;;13.00;99.90;;;;;;5030354;28;20446;-81
2022/10/07 08:43:00;;;;;;;0.10;0.10;;;13.20;99.90;;;;;;5028982;28;20310;-81
2022/10/07 08:45:30;;;;;;;0.10;0.10;;;13.40;99.90;;;;;;5022640;28;20439;-84
2022/10/07 08:47:59;;;;;;;0.10;0.10;;;13.50;99.90;;;;;;5024470;28;20950;-80
2022/10/07 08:50:32;;;;;;;0.17;0.17;;;13.30;99.90;;;;;;5027963;28;20480;-80
2022/10/07 08:53:05;;;;;;;0.10;0.10;;;13.30;99.90;;;;;;5028369;28;20449;-80
2022/10/07 08:55:44;;;;;;;0.10;0.10;;;13.50;99.90;;;;;;5027075;28;20446;-79
2022/10/07 08:58:31;;;;;;;0.10;0.10;;;13.90;99.90;;;;;;5024829;28;20434;-80
2022/10/07 09:01:08;;;;;;;0.10;0.10;;;14.30;99.90;;;;;;5021651;28;20449;-84
2022/10/07 09:03:50;;;;;;;0.10;0.10;;;14.60;99.90;;;;;;5024796;28;20493;-83
2022/10/07 09:06:26;;;;;;;0.10;0.10;;;14.70;99.90;;;;;;5026834;28;20442;-82
2022/10/07 09:08:58;;;;;;;0.10;0.10;;;14.70;99.90;;;;;;5027363;28;20449;-82
2022/10/07 09:11:25;;;;;;;0.10;0.10;;;14.90;99.90;;;;;;5024914;28;20473;-82
2022/10/07 09:14:02;;;;;;;0.10;0.10;;;14.70;99.90;;;;;;5029741;28;20529;-80
2022/10/07 09:16:36;;;;;;;0.10;0.10;;;14.60;99.90;;;;;;5025311;28;20440;-82
2022/10/07 09:19:02;;;;;;;0.10;0.10;;;14.60;99.90;;;;;;5024888;28;20447;-82
2022/10/07 09:21:48;;;;;;;0.10;0.10;;;14.40;99.90;;;;;;5028837;28;20938;-82
2022/10/07 09:24:23;;;;;;;0.10;0.10;;;14.90;99.90;;;;;;5026872;28;20446;-82
2022/10/07 09:26:54;;;;;;;0.10;0.10;;;15.10;99.90;;;;;;5027757;28;20535;-82
2022/10/07 09:29:22;;;;;;;0.10;0.10;;;15.40;99.90;;;;;;5014025;28;20543;-83
2022/10/07 09:31:48;;;;;;;0.10;0.10;;;15.30;99.90;;;;;;5009690;28;20469;-83
2022/10/07 09:34:22;;;;;;;0.10;0.10;;;15.50;99.90;;;;;;5007045;28;20558;-80
2022/10/07 09:37:23;;;;;;;0.10;0.10;;;15.40;99.90;;;;;;5005580;28;22293;-82
2022/10/07 09:39:51;;;;;;;0.10;0.10;;;15.80;99.90;;;;;;5002738;28;20480;-80
2022/10/07 09:42:36;;;;;;;0.10;0.10;;;15.80;99.90;;;;;;5000048;28;21519;-81
2022/10/07 09:45:25;;;;;;;0.10;0.10;;;15.70;99.90;;;;;;5012354;28;21314;-80
2022/10/07 09:47:52;;;;;;;0.10;0.10;;;15.70;99.90;;;;;;5028680;28;20478;-80
2022/10/07 09:50:42;;;;;;;0.10;0.10;;;15.80;99.90;;;;;;5032123;28;20446;-81
2022/10/07 09:53:24;;;;;;;0.10;0.10;;;15.90;99.90;;;;;;5033825;28;20474;-81
2022/10/07 09:55:52;;;;;;;0.10;0.10;;;15.90;99.90;;;;;;5021392;28;20500;-82
2022/10/07 09:58:24;;;;;;;0.10;0.10;;;16.20;99.90;;;;;;5029316;28;20442;-84
2022/10/07 10:00:53;;;;;;;0.10;0.10;;;16.70;99.90;;;;;;5025698;28;21055;-82
2022/10/07 10:03:19;;;;;;;0.10;0.10;;;16.90;99.90;;;;;;5025127;28;20509;-84
2022/10/07 10:05:57;;;;;;;0.10;0.10;;;17.10;99.90;;;;;;5029268;28;20440;-84
2022/10/07 10:08:36;;;;;;;0.10;0.10;;;17.20;99.90;;;;;;5026447;28;20453;-83
2022/10/07 10:11:04;;;;;;;0.10;0.10;;;17.50;99.90;;;;;;5032670;28;20525;-83
2022/10/07 10:13:31;;;;;;;0.10;0.10;;;17.80;99.90;;;;;;5019490;28;20461;-83
2022/10/07 10:15:58;;;;;;;0.10;0.10;;;17.90;99.90;;;;;;5030596;28;20449;-83
2022/10/07 10:18:29;;;;;;;0.10;0.10;;;17.70;99.90;;;;;;5026982;28;20453;-82
2022/10/07 10:20:56;;;;;;;0.10;0.10;;;18.10;99.90;;;;;;5017205;28;20601;-82
2022/10/07 10:23:34;;;;;;;0.10;0.10;;;18.10;99.90;;;;;;5014962;28;20573;-82
2022/10/07 10:26:25;;;;;;;0.10;0.10;;;18.40;99.90;;;;;;5018013;28;20430;-82
2022/10/07 10:29:03;;;;;;;0.10;0.10;;;18.00;99.90;;;;;;5025890;28;20461;-85
2022/10/07 10:31:37;;;;;;;0.10;0.10;;;18.00;99.90;;;;;;5014355;28;20438;-85
2022/10/07 10:34:29;;;;;;;0.10;0.10;;;18.00;99.90;;;;;;5010486;28;21062;-83
2022/10/07 10:37:08;;;;;;;0.10;0.10;;;18.50;99.90;;;;;;5013526;28;20442;-83
2022/10/07 10:39:39;;;;;;;0.10;0.00;;;19.00;99.90;;;;;;5022731;28;20454;-84
2022/10/07 10:42:11;;;;;;;0.10;0.10;;;19.20;99.90;;;;;;5021452;28;20543;-83
2022/10/07 10:44:54;;;;;;;0.10;0.10;;;18.70;99.90;;;;;;5014647;28;20465;-82
2022/10/07 10:47:39;;;;;;;0.10;0.10;;;18.90;99.90;;;;;;5021448;28;20922;-83
2022/10/07 10:50:20;;;;;;;0.10;0.00;;;19.10;99.90;;;;;;5022627;28;20442;-81
2022/10/07 10:52:53;;;;;;;0.10;0.00;;;19.50;99.90;;;;;;5028843;28;20449;-83
2022/10/07 10:55:59;;;;;;;0.10;0.00;;;19.80;99.90;;;;;;5019506;28;20449;-85
2022/10/07 10:59:02;;;;;;;0.10;0.10;;;19.70;99.90;;;;;;5022652;28;20442;-83
2022/10/07 11:01:36;;;;;;;0.10;0.10;;;20.00;99.90;;;;;;5014340;28;20453;-84
2022/10/07 11:04:20;;;;;;;0.10;0.10;;;19.20;99.90;;;;;;5030967;28;20488;-86
2022/10/07 11:06:52;;;;;;;0.10;0.00;;;19.60;99.90;;;;;;5027952;28;20451;-85
2022/10/07 11:09:45;;;;;;;0.10;0.00;;;20.10;99.90;;;;;;5029062;28;20453;-84
2022/10/07 11:12:30;;;;;;;0.10;0.00;;;20.00;99.90;;;;;;5022861;28;20430;-84
2022/10/07 11:15:05;;;;;;;0.10;0.00;;;19.80;99.90;;;;;;5022076;28;20441;-85
2022/10/07 11:17:36;;;;;;;0.10;0.00;;;20.60;99.90;;;;;;5030200;28;20453;-85
2022/10/07 11:20:18;;;;;;;0.10;0.00;;;20.70;99.90;;;;;;5030686;28;20742;-84
2022/10/07 11:22:50;;;;;;;0.10;0.00;;;21.10;99.90;;;;;;5013531;28;21289;-84
2022/10/07 11:25:36;;;;;;;0.10;0.00;;;20.70;99.90;;;;;;5018890;28;20437;-83
2022/10/07 11:28:20;;;;;;;0.10;0.00;;;20.60;99.90;;;;;;5026282;28;20515;-86
2022/10/07 11:31:08;;;;;;;0.10;0.00;;;20.80;99.90;;;;;;5018608;28;20445;-87
2022/10/07 11:34:07;;;;;;;0.10;0.00;;;20.20;99.90;;;;;;5025769;28;21006;-85
2022/10/07 11:36:50;;;;;;;0.10;0.10;;;19.50;99.90;;;;;;5020491;28;20534;-85
2022/10/07 11:39:15;;;;;;;0.10;0.00;;;19.60;99.90;;;;;;5028310;28;20805;-82
2022/10/07 11:41:53;;;;;;;0.10;0.10;;;20.50;99.90;;;;;;5031161;28;20450;-84
2022/10/07 11:44:38;;;;;;;0.10;0.10;;;20.10;99.90;;;;;;5031021;28;20196;-87
2022/10/07 11:47:10;;;;;;;0.10;0.00;;;20.30;99.90;;;;;;5029458;28;20469;-85
2022/10/07 11:49:59;;;;;;;0.10;0.00;;;21.30;99.90;;;;;;5020722;28;20806;-92
2022/10/07 11:52:31;;;;;;;0.10;0.00;;;21.00;99.90;;;;;;5025970;28;20532;-87
2022/10/07 11:55:06;;;;;;;0.10;0.00;;;20.80;99.90;;;;;;5021977;28;20464;-86
2022/10/07 11:57:35;;;;;;;0.10;0.00;;;21.20;99.90;;;;;;5022872;28;20449;-86
2022/10/07 12:00:38;;;;;;;0.00;0.00;;;21.60;99.90;;;;;;5026158;28;20530;-84
2022/10/07 12:03:12;;;;;;;0.10;0.00;;;21.80;99.90;;;;;;5025340;28;20489;-83
2022/10/07 12:05:37;;;;;;;0.10;0.00;;;21.70;99.90;;;;;;5022949;28;20486;-86
2022/10/07 12:08:08;;;;;;;0.10;0.00;;;21.50;99.90;;;;;;5028807;28;20446;-83
2022/10/07 12:10:34;;;;;;;0.10;0.00;;;21.10;99.90;;;;;;5036138;28;20180;-86
2022/10/07 12:13:36;;;;;;;0.10;0.00;;;20.50;99.90;;;;;;5029091;28;20520;-86
2022/10/07 12:16:28;;;;;;;0.10;0.00;;;21.40;99.90;;;;;;5027508;28;20194;-87
2022/10/07 12:19:06;;;;;;;0.10;0.00;;;21.80;99.90;;;;;;5021181;28;20451;-85
2022/10/07 12:22:03;;;;;;;0.10;0.00;;;22.10;99.90;;;;;;5026731;28;20456;-83
2022/10/07 12:24:36;;;;;;;0.10;0.00;;;21.80;99.90;;;;;;5016946;28;20546;-85
2022/10/07 12:27:14;;;;;;;0.10;0.00;;;21.00;99.90;;;;;;5014782;28;20470;-84
2022/10/07 12:29:52;;;;;;;0.10;0.00;;;21.70;99.90;;;;;;5021523;28;20620;-84
2022/10/07 12:32:49;;;;;;;0.10;0.00;;;21.40;99.90;;;;;;5024341;28;20438;-85
2022/10/07 12:35:33;;;;;;;0.10;0.00;;;21.20;99.90;;;;;;5016169;28;20510;-86
2022/10/07 12:38:17;;;;;;;0.10;0.00;;;21.60;99.90;;;;;;5022330;28;20901;-86
2022/10/07 12:40:48;;;;;;;0.10;0.00;;;21.60;99.90;;;;;;5018183;28;20968;-84
2022/10/07 12:43:33;;;;;;;0.10;0.00;;;20.90;99.90;;;;;;5025240;28;21235;-83
2022/10/07 12:46:00;;;;;;;0.10;0.00;;;20.30;99.90;;;;;;5028944;28;20438;-83
2022/10/07 12:48:31;;;;;;;0.10;0.00;;;19.20;99.90;;;;;;5021685;28;20545;-88
2022/10/07 12:50:59;;;;;;;0.10;0.10;;;18.90;99.90;;;;;;5026972;28;20442;-86
2022/10/07 12:53:25;;;;;;;0.10;0.00;;;18.40;99.90;;;;;;5036760;28;20962;-83
2022/10/07 12:55:54;;;;;;;0.10;0.10;;;18.00;99.90;;;;;;5031231;28;20426;-84
2022/10/07 13:01:18;;;;;;;0.10;0.10;;;17.30;99.90;;;;;;5023421;28;20542;-85
2022/10/07 13:04:17;;;;;;;0.10;0.10;;;17.20;99.90;;;;;;5014674;28;20509;-84
2022/10/07 13:07:12;;;;;;;0.10;0.10;;;17.30;99.90;;;;;;5020558;28;20454;-83
2022/10/07 13:10:06;;;;;;;0.10;0.10;;;17.70;99.90;;;;;;5025355;28;20863;-83
2022/10/07 13:12:38;;;;;;;0.10;0.10;;;19.40;99.90;;;;;;5019793;28;20447;-84
2022/10/07 13:15:27;;;;;;;0.10;0.00;;;19.80;99.90;;;;;;5028580;28;20504;-83
2022/10/07 13:17:55;;;;;;;0.10;0.00;;;20.30;99.90;;;;;;5018291;28;20957;-85
2022/10/07 13:20:31;;;;;;;0.10;0.00;;;20.50;99.90;;;;;;5013544;28;20451;-82
2022/10/07 13:23:09;;;;;;;0.10;0.00;;;20.80;99.90;;;;;;5029265;28;20486;-84
2022/10/07 13:25:42;;;;;;;0.10;0.00;;;21.10;99.90;;;;;;5020357;28;20447;-83
2022/10/07 13:28:15;;;;;;;0.10;0.00;;;21.80;99.90;;;;;;5014187;28;20476;-84